Time;durP1;ratioP1;P1;durP2;ratioP2;P2;SDS_P1;SDS_P2;PMS_P1;PMS_P2;Temp;Humidity;BMP_temperature;BMP_pressure;BME280_temperature;BME280_humidity;BME280_pressure;Samples;Min_cycle;Max_cycle;Signal;HPM_P1;HPM_P2
2022/04/29 00:00:42;;;;;;;7.50;4.63;;;7.10;99.90;;;;;;5070214;28;20044;-68
2022/04/29 00:03:11;;;;;;;6.90;4.07;;;7.10;99.90;;;;;;5068823;28;20563;-69
2022/04/29 00:05:41;;;;;;;11.27;4.70;;;7.10;99.90;;;;;;5057094;28;20044;-69
2022/04/29 00:08:09;;;;;;;8.68;4.13;;;7.10;99.90;;;;;;5063769;28;20123;-70
2022/04/29 00:10:35;;;;;;;10.57;4.70;;;7.00;99.90;;;;;;5049911;28;20064;-69
2022/04/29 00:13:03;;;;;;;15.50;5.00;;;7.00;99.90;;;;;;5051637;28;20175;-68
2022/04/29 00:15:30;;;;;;;10.77;4.78;;;7.30;99.90;;;;;;5041964;28;20056;-70
2022/04/29 00:17:57;;;;;;;8.80;4.25;;;7.10;99.90;;;;;;5062180;28;20056;-68
2022/04/29 00:20:23;;;;;;;9.85;5.00;;;7.00;99.90;;;;;;5058787;28;20044;-68
2022/04/29 00:22:50;;;;;;;11.02;4.90;;;7.00;99.90;;;;;;5046742;28;20048;-68
2022/04/29 00:25:16;;;;;;;10.10;4.72;;;7.00;99.90;;;;;;5061945;28;20037;-69
2022/04/29 00:27:42;;;;;;;8.57;4.85;;;7.00;99.90;;;;;;5066601;28;20553;-68
2022/04/29 00:30:11;;;;;;;13.43;5.00;;;7.00;99.90;;;;;;5041307;28;20125;-68
2022/04/29 00:32:38;;;;;;;14.38;5.38;;;7.00;99.90;;;;;;5041788;28;20183;-68
2022/04/29 00:35:05;;;;;;;10.90;5.20;;;7.00;99.90;;;;;;5055549;28;20033;-69
2022/04/29 00:37:32;;;;;;;16.52;5.53;;;7.00;99.90;;;;;;5066835;28;20047;-69
2022/04/29 00:39:58;;;;;;;10.38;5.20;;;6.90;99.90;;;;;;5042391;28;20052;-68
2022/04/29 00:42:24;;;;;;;10.45;4.97;;;6.90;99.90;;;;;;5053864;28;20048;-69
2022/04/29 00:44:51;;;;;;;9.25;5.03;;;6.90;99.90;;;;;;5062325;28;20055;-68
2022/04/29 00:47:19;;;;;;;11.27;4.97;;;7.10;99.90;;;;;;5057079;28;20055;-68
2022/04/29 00:49:47;;;;;;;12.15;4.65;;;6.90;99.90;;;;;;5058977;28;20396;-69
2022/04/29 00:52:20;;;;;;;11.13;5.57;;;6.90;99.90;;;;;;5061898;28;20076;-68
2022/04/29 00:54:52;;;;;;;8.68;4.63;;;6.90;99.90;;;;;;5057057;28;20044;-68
2022/04/29 00:57:26;;;;;;;11.75;4.85;;;6.90;99.90;;;;;;5072733;28;20412;-68
2022/04/29 00:59:56;;;;;;;12.13;5.10;;;6.80;99.90;;;;;;5069923;28;20119;-69
2022/04/29 01:02:23;;;;;;;11.90;4.57;;;6.80;99.90;;;;;;5052418;28;20132;-68
2022/04/29 01:04:55;;;;;;;13.00;5.00;;;6.80;99.90;;;;;;5055380;28;20053;-68
2022/04/29 01:07:22;;;;;;;14.82;5.03;;;6.80;99.90;;;;;;5086008;28;20105;-68
2022/04/29 01:09:49;;;;;;;8.70;5.03;;;6.70;99.90;;;;;;5055931;28;20049;-69
2022/04/29 01:12:15;;;;;;;9.50;4.68;;;6.70;99.90;;;;;;5045524;28;20040;-69
2022/04/29 01:14:42;;;;;;;15.60;4.93;;;6.70;99.90;;;;;;5054261;28;20542;-69
2022/04/29 01:17:08;;;;;;;11.23;4.90;;;6.70;99.90;;;;;;5071636;28;20048;-70
2022/04/29 01:19:34;;;;;;;10.40;4.68;;;6.60;99.90;;;;;;5068843;28;20048;-68
2022/04/29 01:22:01;;;;;;;11.75;4.95;;;6.60;99.90;;;;;;5058486;28;20056;-69
2022/04/29 01:24:27;;;;;;;10.57;5.22;;;6.60;99.90;;;;;;5066049;28;20493;-68
2022/04/29 01:26:53;;;;;;;10.05;5.13;;;6.60;99.90;;;;;;5069675;28;20060;-69
2022/04/29 01:29:21;;;;;;;9.75;4.70;;;6.60;99.90;;;;;;5071600;28;20052;-69
2022/04/29 01:31:49;;;;;;;9.15;5.20;;;6.50;99.90;;;;;;5051352;28;20093;-68
2022/04/29 01:34:15;;;;;;;8.05;4.68;;;6.60;99.90;;;;;;5052376;28;20048;-69
2022/04/29 01:36:41;;;;;;;13.02;5.45;;;6.40;99.90;;;;;;5049969;28;20063;-68
2022/04/29 01:39:07;;;;;;;14.07;5.70;;;6.60;99.90;;;;;;5060542;28;20117;-69
2022/04/29 01:41:34;;;;;;;9.00;5.05;;;6.40;99.90;;;;;;5052385;28;20637;-69
2022/04/29 01:44:00;;;;;;;11.52;5.32;;;6.40;99.90;;;;;;5055802;28;20178;-68
2022/04/29 01:46:26;;;;;;;11.52;5.60;;;6.30;99.90;;;;;;5027814;28;20044;-68
2022/04/29 01:48:52;;;;;;;15.80;5.75;;;6.30;99.90;;;;;;5043479;28;20052;-68
2022/04/29 01:51:18;;;;;;;11.95;5.22;;;6.30;99.90;;;;;;5062127;28;20051;-68
2022/04/29 01:53:44;;;;;;;10.35;5.32;;;6.30;99.90;;;;;;5037830;28;20055;-69
2022/04/29 01:56:10;;;;;;;12.35;5.30;;;6.30;99.90;;;;;;5051340;28;20047;-68
2022/04/29 01:58:37;;;;;;;13.15;5.78;;;6.30;99.90;;;;;;5041655;28;20040;-68
2022/04/29 02:01:03;;;;;;;13.40;5.43;;;6.30;99.90;;;;;;5057175;28;20055;-70
2022/04/29 02:03:29;;;;;;;10.90;5.75;;;6.30;99.90;;;;;;5060428;28;20040;-69
2022/04/29 02:05:55;;;;;;;12.00;5.35;;;6.30;99.90;;;;;;5062797;28;20121;-70
2022/04/29 02:08:21;;;;;;;12.18;5.95;;;6.80;99.90;;;;;;5031962;28;20150;-68
2022/04/29 02:10:47;;;;;;;14.95;5.40;;;6.70;99.90;;;;;;5062333;28;20083;-70
2022/04/29 02:13:13;;;;;;;15.75;5.68;;;6.30;99.90;;;;;;5052163;28;20624;-68
2022/04/29 02:15:38;;;;;;;10.60;6.00;;;6.30;99.90;;;;;;5054782;28;20081;-68
2022/04/29 02:18:05;;;;;;;18.52;6.25;;;6.30;99.90;;;;;;5062319;28;20067;-68
2022/04/29 02:20:31;;;;;;;16.00;5.88;;;6.30;99.90;;;;;;5032266;28;20052;-67
2022/04/29 02:23:03;;;;;;;11.05;5.70;;;6.20;99.90;;;;;;5058742;28;20056;-69
2022/04/29 02:25:29;;;;;;;13.82;6.40;;;6.30;99.90;;;;;;5043820;28;20122;-69
2022/04/29 02:27:55;;;;;;;10.82;5.43;;;6.20;99.90;;;;;;5058156;28;20079;-69
2022/04/29 02:30:21;;;;;;;13.82;6.00;;;6.20;99.90;;;;;;5058171;28;20045;-68
2022/04/29 02:32:47;;;;;;;8.80;5.45;;;6.20;99.90;;;;;;5040519;28;20036;-69
2022/04/29 02:35:14;;;;;;;13.05;5.38;;;6.10;99.90;;;;;;5057128;28;20394;-69
2022/04/29 02:37:40;;;;;;;12.20;5.30;;;6.50;99.90;;;;;;5067132;28;20551;-69
2022/04/29 02:40:07;;;;;;;15.25;6.20;;;6.10;99.90;;;;;;5065286;28;20036;-70
2022/04/29 02:42:33;;;;;;;10.73;5.95;;;6.10;99.90;;;;;;5054537;28;20084;-69
2022/04/29 02:44:59;;;;;;;11.70;5.78;;;6.10;99.90;;;;;;5054225;28;20049;-69
2022/04/29 02:47:24;;;;;;;13.27;5.63;;;6.00;99.90;;;;;;5060238;28;20135;-69
2022/04/29 02:49:50;;;;;;;11.05;5.72;;;6.10;99.90;;;;;;5058845;28;20041;-69
2022/04/29 02:52:16;;;;;;;12.40;5.90;;;6.00;99.90;;;;;;5054234;28;20091;-69
2022/04/29 02:54:42;;;;;;;12.55;5.93;;;6.00;99.90;;;;;;5050217;28;20516;-69
2022/04/29 02:57:08;;;;;;;11.32;6.05;;;6.10;99.90;;;;;;5043330;28;20037;-69
2022/04/29 02:59:35;;;;;;;11.95;5.90;;;6.00;99.90;;;;;;5053624;28;20447;-69
2022/04/29 03:02:01;;;;;;;17.15;6.82;;;6.00;99.90;;;;;;5057414;28;20167;-69
2022/04/29 03:04:27;;;;;;;11.20;5.93;;;6.00;99.90;;;;;;5060052;28;20135;-69
2022/04/29 03:06:53;;;;;;;14.68;6.75;;;6.00;99.90;;;;;;5060580;28;20401;-70
2022/04/29 03:09:20;;;;;;;14.20;6.07;;;6.00;99.90;;;;;;5056881;28;20036;-70
2022/04/29 03:11:47;;;;;;;13.50;6.22;;;6.00;99.90;;;;;;5070767;28;20041;-70
2022/04/29 03:14:14;;;;;;;11.13;5.75;;;6.00;99.90;;;;;;5051875;28;20040;-67
2022/04/29 03:16:39;;;;;;;9.30;5.82;;;6.00;99.90;;;;;;5057240;28;20486;-69
2022/04/29 03:19:06;;;;;;;13.80;6.13;;;6.00;99.90;;;;;;5058456;28;20063;-69
2022/04/29 03:21:33;;;;;;;11.15;5.78;;;6.00;99.90;;;;;;5064302;28;20090;-69
2022/04/29 03:24:00;;;;;;;15.05;6.15;;;6.10;99.90;;;;;;5058977;28;20731;-69
2022/04/29 03:26:26;;;;;;;14.02;6.07;;;6.10;99.90;;;;;;5061452;28;20053;-69
2022/04/29 03:28:52;;;;;;;12.45;5.78;;;6.20;99.90;;;;;;5052960;28;20052;-69
2022/04/29 03:31:18;;;;;;;12.82;5.47;;;6.20;99.90;;;;;;5059811;28;20086;-70
2022/04/29 03:33:44;;;;;;;12.63;5.57;;;6.30;99.90;;;;;;5054663;28;20405;-69
2022/04/29 03:36:10;;;;;;;11.88;5.63;;;6.30;99.90;;;;;;5060362;28;20049;-69
2022/04/29 03:38:36;;;;;;;12.40;5.70;;;6.30;99.90;;;;;;5043995;28;20049;-70
2022/04/29 03:41:02;;;;;;;14.63;6.10;;;6.40;99.90;;;;;;5057441;28;20045;-69
2022/04/29 03:43:28;;;;;;;10.65;5.82;;;6.40;99.90;;;;;;5060662;28;20386;-70
2022/04/29 03:45:55;;;;;;;14.38;6.32;;;6.40;99.90;;;;;;5060435;28;20051;-69
2022/04/29 03:48:20;;;;;;;16.17;6.57;;;6.40;99.90;;;;;;5043178;28;20048;-69
2022/04/29 03:50:46;;;;;;;9.90;5.70;;;6.40;99.90;;;;;;5057889;28;20052;-69
2022/04/29 03:53:12;;;;;;;11.52;5.93;;;6.40;99.90;;;;;;5054235;28;20076;-69
2022/04/29 03:55:38;;;;;;;12.80;6.70;;;6.40;99.90;;;;;;5047171;28;20051;-69
2022/04/29 03:58:04;;;;;;;11.65;6.28;;;6.30;99.90;;;;;;5053752;28;20410;-69
2022/04/29 04:00:33;;;;;;;18.05;6.28;;;6.30;99.90;;;;;;5057427;28;20378;-69
2022/04/29 04:03:00;;;;;;;11.02;5.70;;;6.30;99.90;;;;;;5044684;28;20056;-69
2022/04/29 04:05:26;;;;;;;13.32;5.70;;;6.20;99.90;;;;;;5054006;28;20063;-69
2022/04/29 04:07:52;;;;;;;13.73;5.88;;;6.20;99.90;;;;;;5060457;28;20041;-69
2022/04/29 04:10:18;;;;;;;12.85;6.55;;;6.20;99.90;;;;;;5070046;28;20095;-70
2022/04/29 04:12:49;;;;;;;12.45;5.63;;;6.20;99.90;;;;;;5046621;28;20496;-70
2022/04/29 04:15:17;;;;;;;13.05;5.82;;;6.20;99.90;;;;;;5045650;28;20044;-69
2022/04/29 04:17:44;;;;;;;11.80;6.32;;;6.20;99.90;;;;;;5053280;28;20087;-69
2022/04/29 04:20:12;;;;;;;10.25;6.05;;;6.20;99.90;;;;;;5063713;28;20098;-68
2022/04/29 04:22:38;;;;;;;12.88;6.45;;;6.30;99.90;;;;;;5065076;28;20049;-70
2022/04/29 04:25:13;;;;;;;13.15;5.88;;;6.40;99.90;;;;;;5059560;28;20041;-69
2022/04/29 04:27:39;;;;;;;12.15;6.90;;;6.40;99.90;;;;;;5074385;28;20079;-69
2022/04/29 04:30:06;;;;;;;11.32;6.03;;;6.50;99.90;;;;;;5045269;28;20049;-70
2022/04/29 04:32:39;;;;;;;12.57;6.43;;;6.50;99.90;;;;;;5056330;28;20047;-69
2022/04/29 04:35:07;;;;;;;13.70;6.40;;;6.60;99.90;;;;;;5064358;28;20052;-70
2022/04/29 04:37:33;;;;;;;11.27;5.95;;;6.60;99.90;;;;;;5051964;28;20075;-69
2022/04/29 04:40:00;;;;;;;10.45;5.93;;;6.70;99.90;;;;;;5052942;28;20049;-70
2022/04/29 04:42:27;;;;;;;12.32;5.75;;;6.70;99.90;;;;;;5063125;28;20045;-69
2022/04/29 04:44:54;;;;;;;13.00;6.03;;;6.80;99.90;;;;;;5057719;28;20490;-69
2022/04/29 04:47:21;;;;;;;10.48;5.97;;;6.90;99.90;;;;;;5058588;28;20527;-69
2022/04/29 04:49:47;;;;;;;14.50;6.30;;;6.90;99.90;;;;;;5049473;28;20048;-69
2022/04/29 04:52:13;;;;;;;10.98;5.75;;;7.00;99.90;;;;;;5046318;28;20128;-69
2022/04/29 04:54:39;;;;;;;12.63;5.88;;;7.00;99.90;;;;;;5064518;28;20059;-69
2022/04/29 04:57:05;;;;;;;10.70;5.55;;;7.00;99.90;;;;;;5064008;28;20536;-69
2022/04/29 04:59:32;;;;;;;12.52;6.30;;;7.10;99.90;;;;;;5045106;28;20098;-71
2022/04/29 05:01:58;;;;;;;11.10;5.85;;;7.10;99.90;;;;;;5052672;28;20084;-69
2022/04/29 05:04:25;;;;;;;11.25;5.47;;;7.20;99.90;;;;;;5062423;28;20099;-69
2022/04/29 05:06:54;;;;;;;13.15;6.32;;;7.30;99.90;;;;;;5059457;28;20048;-69
2022/04/29 05:09:20;;;;;;;12.20;6.00;;;7.30;99.90;;;;;;5061307;28;20413;-70
2022/04/29 05:11:46;;;;;;;9.93;5.57;;;7.40;99.90;;;;;;5030938;28;20048;-69
2022/04/29 05:14:12;;;;;;;9.88;5.93;;;7.50;99.90;;;;;;5062244;28;20044;-69
2022/04/29 05:16:38;;;;;;;10.57;5.82;;;7.60;99.90;;;;;;5066248;28;20401;-70
2022/04/29 05:19:05;;;;;;;11.55;6.18;;;7.70;99.90;;;;;;5062276;28;20126;-69
2022/04/29 05:21:31;;;;;;;11.65;5.50;;;7.80;99.90;;;;;;5046574;28;20063;-69
2022/04/29 05:23:57;;;;;;;9.70;5.65;;;7.90;99.90;;;;;;5060820;28;20059;-69
2022/04/29 05:26:23;;;;;;;8.23;5.72;;;8.00;99.90;;;;;;5042935;28;20041;-69
2022/04/29 05:28:50;;;;;;;10.93;5.82;;;8.10;99.90;;;;;;5061553;28;20523;-69
2022/04/29 05:31:16;;;;;;;12.15;5.75;;;8.20;99.90;;;;;;5031363;28;20065;-70
2022/04/29 05:33:42;;;;;;;13.88;6.47;;;8.30;99.90;;;;;;5045251;28;20054;-69
2022/04/29 05:36:11;;;;;;;8.05;5.63;;;8.50;99.90;;;;;;5046530;28;20033;-70
2022/04/29 05:44:08;;;;;;;10.68;5.47;;;9.00;99.90;;;;;;5066713;28;20050;-70
2022/04/29 05:46:35;;;;;;;9.45;5.30;;;9.10;99.90;;;;;;5062519;28;20102;-69
2022/04/29 05:49:02;;;;;;;8.40;5.00;;;9.30;99.90;;;;;;5061036;28;20048;-70
2022/04/29 05:51:28;;;;;;;9.70;5.00;;;9.50;99.90;;;;;;5059439;28;20072;-69
2022/04/29 05:53:55;;;;;;;8.93;4.28;;;9.60;99.90;;;;;;5058215;28;20048;-70
2022/04/29 05:56:21;;;;;;;9.70;4.90;;;9.70;99.90;;;;;;5059461;28;20404;-70
2022/04/29 05:58:47;;;;;;;8.32;4.20;;;9.70;99.90;;;;;;5054812;28;20115;-69
2022/04/29 06:01:13;;;;;;;8.45;4.72;;;9.80;99.90;;;;;;5037621;28;20117;-69
2022/04/29 06:03:39;;;;;;;7.03;4.68;;;9.90;99.90;;;;;;5035339;28;20045;-70
2022/04/29 06:06:06;;;;;;;9.07;4.30;;;9.90;99.90;;;;;;5035522;28;20131;-69
2022/04/29 06:08:32;;;;;;;8.02;4.47;;;9.90;99.90;;;;;;5045158;28;20497;-69
2022/04/29 06:10:58;;;;;;;7.50;3.90;;;10.00;99.90;;;;;;5060273;28;20068;-69
2022/04/29 06:13:24;;;;;;;8.02;4.18;;;10.00;99.90;;;;;;5062248;28;20057;-69
2022/04/29 06:15:50;;;;;;;7.22;4.28;;;10.00;99.90;;;;;;5056819;28;20482;-69
2022/04/29 06:18:16;;;;;;;6.80;4.28;;;10.10;99.90;;;;;;5059660;28;20051;-69
2022/04/29 06:20:43;;;;;;;7.15;3.63;;;10.00;99.90;;;;;;5045847;28;20045;-70
2022/04/29 06:23:09;;;;;;;19.95;5.20;;;10.00;99.90;;;;;;5075295;28;20112;-69
2022/04/29 06:25:35;;;;;;;9.75;4.55;;;10.00;99.90;;;;;;5060928;28;20101;-71
2022/04/29 06:28:01;;;;;;;23.75;5.50;;;9.90;99.90;;;;;;5062588;28;20044;-69
2022/04/29 06:30:27;;;;;;;6.65;4.32;;;9.80;99.90;;;;;;5060731;28;20048;-70
2022/04/29 06:32:54;;;;;;;6.88;4.65;;;9.80;99.90;;;;;;5062690;28;20040;-70
2022/04/29 06:35:21;;;;;;;6.80;4.68;;;9.80;99.90;;;;;;5055343;28;20125;-70
2022/04/29 06:37:47;;;;;;;8.38;4.75;;;9.80;99.90;;;;;;5045805;28;20044;-70
2022/04/29 06:40:13;;;;;;;10.40;4.50;;;9.90;99.90;;;;;;5053867;28;20103;-72
2022/04/29 06:42:46;;;;;;;8.93;3.65;;;9.90;99.90;;;;;;5054319;28;20056;-73
2022/04/29 06:45:14;;;;;;;7.03;4.03;;;9.90;99.90;;;;;;5058071;28;20182;-74
2022/04/29 06:47:40;;;;;;;7.25;3.60;;;10.10;99.90;;;;;;5059286;28;20075;-69
2022/04/29 06:50:07;;;;;;;6.95;2.90;;;9.90;99.90;;;;;;5061406;28;20048;-70
2022/04/29 06:52:34;;;;;;;6.75;3.67;;;9.90;99.90;;;;;;5055144;28;20064;-70
2022/04/29 06:55:00;;;;;;;9.25;4.13;;;9.90;99.90;;;;;;5054540;28;20080;-70
2022/04/29 06:57:25;;;;;;;6.07;3.80;;;10.00;99.90;;;;;;5053920;28;20083;-69
2022/04/29 06:59:51;;;;;;;9.57;4.13;;;10.00;99.90;;;;;;5033756;28;20531;-69
2022/04/29 07:02:17;;;;;;;7.05;3.95;;;9.90;99.90;;;;;;5056610;28;20057;-70
2022/04/29 07:04:43;;;;;;;6.30;3.42;;;9.90;99.90;;;;;;5034182;28;20056;-70
2022/04/29 07:07:12;;;;;;;5.78;3.70;;;9.90;99.90;;;;;;5042151;28;20050;-70
2022/04/29 07:09:43;;;;;;;7.20;4.18;;;10.10;99.90;;;;;;5062015;28;20389;-71
2022/04/29 07:12:09;;;;;;;10.50;4.37;;;10.10;99.90;;;;;;5039159;28;20049;-70
2022/04/29 07:14:36;;;;;;;8.38;3.95;;;10.00;99.90;;;;;;5057063;28;20130;-70
2022/04/29 07:17:03;;;;;;;5.10;3.97;;;10.00;99.90;;;;;;5056159;28;20120;-69
2022/04/29 07:19:29;;;;;;;5.88;4.00;;;10.00;99.90;;;;;;5052006;28;20056;-69
2022/04/29 07:21:54;;;;;;;6.25;4.25;;;10.10;99.90;;;;;;5049765;28;21050;-71
2022/04/29 07:24:20;;;;;;;7.65;4.28;;;10.10;99.90;;;;;;5044707;28;20154;-68
2022/04/29 07:26:46;;;;;;;7.80;4.45;;;10.10;99.90;;;;;;5057758;28;20131;-69
2022/04/29 07:29:12;;;;;;;8.95;3.88;;;10.10;99.90;;;;;;5060035;28;20045;-71
2022/04/29 07:31:38;;;;;;;7.70;4.07;;;10.20;99.90;;;;;;5064993;28;20037;-70
2022/04/29 07:34:04;;;;;;;7.68;3.72;;;10.10;99.90;;;;;;5056147;28;20052;-69
2022/04/29 07:42:06;;;;;;;;;;;10.30;99.90;;;;;;5050283;28;20079;-69
2022/04/29 07:44:33;;;;;;;5.63;2.65;;;10.40;99.90;;;;;;5056769;28;20292;-69
2022/04/29 07:47:00;;;;;;;4.57;2.92;;;10.40;99.90;;;;;;5046907;28;20520;-72
2022/04/29 07:49:26;;;;;;;6.70;3.17;;;10.50;99.90;;;;;;5060115;28;20520;-69
2022/04/29 07:51:52;;;;;;;5.95;2.90;;;10.40;99.90;;;;;;5060918;28;20072;-69
2022/04/29 07:54:18;;;;;;;4.57;2.97;;;10.50;99.90;;;;;;5060924;28;20037;-69
2022/04/29 07:56:44;;;;;;;7.47;3.38;;;10.50;99.90;;;;;;5037971;28;20047;-69
2022/04/29 07:59:10;;;;;;;6.97;3.55;;;10.60;99.90;;;;;;5068000;28;20094;-68
2022/04/29 08:01:36;;;;;;;6.43;4.03;;;10.70;99.90;;;;;;5073858;28;20053;-69
2022/04/29 08:04:04;;;;;;;8.43;3.92;;;10.70;99.90;;;;;;5056538;28;20041;-68
2022/04/29 08:06:30;;;;;;;5.95;3.53;;;10.70;99.90;;;;;;5054987;28;20044;-68
2022/04/29 08:08:56;;;;;;;4.85;3.25;;;10.90;99.90;;;;;;5054133;28;20052;-69
2022/04/29 08:11:24;;;;;;;4.50;3.40;;;11.00;99.90;;;;;;5059989;28;20044;-69
2022/04/29 08:13:50;;;;;;;7.05;3.28;;;11.40;99.90;;;;;;5053701;28;20052;-68
2022/04/29 08:16:16;;;;;;;5.47;3.55;;;11.60;99.90;;;;;;5055150;28;20453;-69
2022/04/29 08:18:42;;;;;;;8.23;3.53;;;11.90;99.90;;;;;;5073088;28;20049;-71
2022/04/29 08:21:08;;;;;;;9.63;3.80;;;12.10;99.90;;;;;;5056216;28;20436;-71
2022/04/29 08:23:35;;;;;;;10.38;4.05;;;12.30;99.90;;;;;;5057591;28;20051;-69
2022/04/29 08:26:01;;;;;;;11.13;3.72;;;12.40;99.90;;;;;;5067543;28;20048;-69
2022/04/29 08:28:28;;;;;;;6.95;3.30;;;12.40;99.90;;;;;;5060028;28;20122;-69
2022/04/29 08:30:54;;;;;;;6.82;3.25;;;12.30;99.90;;;;;;5052951;28;20151;-68
2022/04/29 08:33:21;;;;;;;5.20;3.15;;;12.20;99.90;;;;;;5053629;28;20577;-68
2022/04/29 08:35:47;;;;;;;6.57;3.65;;;12.20;99.90;;;;;;5060405;28;20052;-70
2022/04/29 08:38:13;;;;;;;7.30;3.70;;;12.20;99.90;;;;;;5057306;28;20115;-71
2022/04/29 08:40:41;;;;;;;9.88;3.60;;;12.40;99.90;;;;;;5060363;28;20434;-69
2022/04/29 08:43:09;;;;;;;7.30;3.30;;;12.60;99.90;;;;;;5061776;28;20069;-69
2022/04/29 08:45:38;;;;;;;5.43;2.50;;;12.80;99.90;;;;;;5059537;28;20048;-69
2022/04/29 08:48:04;;;;;;;3.75;2.95;;;13.00;99.90;;;;;;5043012;28;20509;-69
2022/04/29 08:50:31;;;;;;;6.20;2.83;;;13.10;99.90;;;;;;5057684;28;20055;-71
2022/04/29 08:52:58;;;;;;;5.47;2.92;;;13.20;99.90;;;;;;5062460;28;20052;-70
2022/04/29 09:01:01;;;;;;;4.78;2.80;;;13.50;99.90;;;;;;5077531;28;20567;-69
2022/04/29 09:03:27;;;;;;;3.95;2.60;;;13.10;99.90;;;;;;5060234;28;20086;-70
2022/04/29 09:05:53;;;;;;;4.53;2.80;;;13.00;99.90;;;;;;5063346;28;20067;-69
2022/04/29 09:08:21;;;;;;;5.78;3.50;;;12.90;99.90;;;;;;5059819;28;20037;-69
2022/04/29 09:10:56;;;;;;;6.32;3.22;;;12.80;99.90;;;;;;5057467;28;20048;-69
2022/04/29 09:13:30;;;;;;;11.15;3.85;;;12.80;99.90;;;;;;5064308;28;20040;-68
2022/04/29 09:15:58;;;;;;;6.13;3.30;;;12.80;99.90;;;;;;5062483;28;20057;-69
2022/04/29 09:18:48;;;;;;;6.18;3.50;;;12.70;99.90;;;;;;5046049;28;20053;-74
2022/04/29 09:21:17;;;;;;;5.32;2.90;;;12.80;99.90;;;;;;5046310;28;20040;-80
2022/04/29 09:23:54;;;;;;;6.07;3.15;;;12.90;99.90;;;;;;5044573;28;20049;-87
2022/04/29 09:26:38;;;;;;;4.20;3.20;;;13.00;99.90;;;;;;5064602;28;20044;-89
2022/04/29 09:29:10;;;;;;;4.22;3.00;;;13.00;99.90;;;;;;5035196;28;20044;-75
2022/04/29 09:31:58;;;;;;;4.78;3.40;;;13.00;99.90;;;;;;5059626;28;20071;-76
2022/04/29 09:34:42;;;;;;;6.43;3.03;;;13.00;99.90;;;;;;5039555;28;20045;-75
2022/04/29 09:37:17;;;;;;;7.97;3.50;;;12.90;99.90;;;;;;5059287;28;20592;-75
2022/04/29 09:39:57;;;;;;;4.65;3.30;;;13.00;99.90;;;;;;5056528;28;20041;-77
2022/04/29 09:42:23;;;;;;;7.18;3.60;;;12.90;99.90;;;;;;5058351;28;20053;-75
2022/04/29 09:44:50;;;;;;;6.63;3.17;;;12.80;99.90;;;;;;5057300;28;20052;-77
2022/04/29 09:47:20;;;;;;;4.90;3.47;;;12.90;99.90;;;;;;5061906;28;20114;-76
2022/04/29 09:49:58;;;;;;;5.72;3.15;;;12.90;99.90;;;;;;5051863;28;20131;-75
2022/04/29 09:52:26;;;;;;;8.18;3.15;;;12.90;99.90;;;;;;5055391;28;20075;-76
2022/04/29 09:54:52;;;;;;;9.77;3.33;;;12.90;99.90;;;;;;5044422;28;20052;-76
2022/04/29 09:57:23;;;;;;;8.75;3.30;;;12.90;99.90;;;;;;5035678;28;20041;-76
2022/04/29 09:59:54;;;;;;;6.37;3.30;;;12.90;99.90;;;;;;5059946;28;20083;-76
2022/04/29 10:02:23;;;;;;;;;;;13.10;99.90;;;;;;5060549;28;20727;-76
2022/04/29 10:04:51;;;;;;;4.22;3.17;;;13.20;99.90;;;;;;5057815;28;19924;-74
2022/04/29 10:07:24;;;;;;;4.55;3.72;;;13.30;99.90;;;;;;5043714;28;20103;-73
2022/04/29 10:09:53;;;;;;;7.32;3.38;;;13.20;99.90;;;;;;5031471;28;20049;-73
2022/04/29 10:12:23;;;;;;;3.70;3.35;;;13.40;99.90;;;;;;5041900;28;20130;-72
2022/04/29 10:14:57;;;;;;;5.40;3.63;;;13.30;99.90;;;;;;5059979;28;20096;-74
2022/04/29 10:23:09;;;;;;;7.03;4.60;;;13.50;99.90;;;;;;5060991;28;20059;-73
2022/04/29 10:25:41;;;;;;;8.63;4.85;;;13.60;99.90;;;;;;5058358;28;20098;-74
2022/04/29 10:28:08;;;;;;;4.88;4.40;;;13.40;99.90;;;;;;5054539;28;20120;-74
2022/04/29 10:30:39;;;;;;;6.97;4.88;;;13.50;99.90;;;;;;5038402;28;20059;-73
2022/04/29 10:33:22;;;;;;;7.22;4.53;;;13.70;99.90;;;;;;5056300;28;20130;-74
2022/04/29 10:35:53;;;;;;;6.38;4.40;;;13.80;99.90;;;;;;5040946;28;20044;-78
2022/04/29 10:38:42;;;;;;;6.97;4.30;;;13.80;99.90;;;;;;5035453;28;20041;-75
2022/04/29 10:41:14;;;;;;;4.93;4.07;;;13.80;99.90;;;;;;5062623;28;20045;-76
2022/04/29 10:43:46;;;;;;;7.22;4.30;;;13.80;99.90;;;;;;5059596;28;20056;-76
2022/04/29 10:46:14;;;;;;;6.78;4.25;;;13.70;99.90;;;;;;5058780;28;20468;-74
2022/04/29 10:48:42;;;;;;;5.22;4.35;;;13.70;99.90;;;;;;5057580;28;20059;-74
2022/04/29 10:51:12;;;;;;;7.50;4.25;;;13.70;99.90;;;;;;5050833;28;20076;-76
2022/04/29 10:53:41;;;;;;;8.00;4.40;;;13.70;99.90;;;;;;5050775;28;20128;-75
2022/04/29 10:56:31;;;;;;;6.32;4.35;;;13.70;99.90;;;;;;5058723;28;20044;-73
2022/04/29 10:59:04;;;;;;;6.85;4.90;;;13.70;99.90;;;;;;5034765;28;20052;-74
2022/04/29 11:01:34;;;;;;;5.82;4.50;;;13.70;99.90;;;;;;5052056;28;20040;-74
2022/04/29 11:04:05;;;;;;;8.05;4.93;;;13.70;99.90;;;;;;5058377;28;20053;-76
2022/04/29 11:06:37;;;;;;;8.30;5.40;;;13.60;99.90;;;;;;5060742;28;20115;-71
